Time;durP1;ratioP1;P1;durP2;ratioP2;P2;SDS_P1;SDS_P2;PMS_P1;PMS_P2;Temp;Humidity;BMP_temperature;BMP_pressure;BME280_temperature;BME280_humidity;BME280_pressure;Samples;Min_cycle;Max_cycle;Signal;HPM_P1;HPM_P2
2022/01/06 00:02:29;;;;;;;6.95;2.80;;;3.70;99.90;;;;;;2603178;54;20042;31
2022/01/06 00:05:05;;;;;;;6.78;2.60;;;3.70;99.90;;;;;;2603207;54;20798;31
2022/01/06 00:07:44;;;;;;;5.22;2.00;;;3.70;99.90;;;;;;2603166;54;20029;31
2022/01/06 00:10:28;;;;;;;5.50;2.15;;;3.70;99.90;;;;;;2621559;46;20027;31
2022/01/06 00:13:18;;;;;;;7.03;2.60;;;3.80;99.90;;;;;;2603284;54;20037;31
2022/01/06 00:16:06;;;;;;;6.05;2.15;;;3.70;99.90;;;;;;2603168;54;20892;31
2022/01/06 00:24:37;;;;;;;4.85;1.88;;;3.70;99.90;;;;;;2603026;54;20108;31
2022/01/06 00:27:12;;;;;;;4.55;1.90;;;3.80;99.90;;;;;;2621737;46;20027;31
2022/01/06 00:32:46;;;;;;;8.60;1.90;;;3.70;99.90;;;;;;2602889;54;19981;31
2022/01/06 00:35:23;;;;;;;4.63;1.92;;;3.60;99.90;;;;;;2603069;54;20053;31
2022/01/06 00:38:07;;;;;;;7.30;1.70;;;3.70;99.90;;;;;;2603025;54;20085;31
2022/01/06 00:40:53;;;;;;;3.55;1.88;;;3.60;99.90;;;;;;2602901;54;20023;31
2022/01/06 00:43:29;;;;;;;3.37;1.70;;;3.70;99.90;;;;;;2603136;54;20046;31
2022/01/06 00:46:06;;;;;;;3.50;1.38;;;3.70;99.90;;;;;;2603193;54;20261;31
2022/01/06 00:48:53;;;;;;;2.55;1.35;;;3.70;99.90;;;;;;2602945;54;20772;31
2022/01/06 00:51:29;;;;;;;4.22;1.55;;;3.70;99.90;;;;;;2602371;54;20857;31
2022/01/06 00:54:12;;;;;;;4.00;1.40;;;3.70;99.90;;;;;;2602935;54;20031;31
2022/01/06 00:56:51;;;;;;;4.45;1.05;;;3.70;99.90;;;;;;2603257;54;20060;31
2022/01/06 01:02:17;;;;;;;3.28;1.35;;;3.70;99.90;;;;;;2621073;47;20189;31
2022/01/06 01:04:56;;;;;;;3.72;1.77;;;3.70;99.90;;;;;;2603855;54;20809;31
2022/01/06 01:07:35;;;;;;;4.50;1.33;;;3.70;99.90;;;;;;2603772;54;20042;31
2022/01/06 01:10:16;;;;;;;3.60;1.60;;;3.70;99.90;;;;;;2602927;54;20870;31
2022/01/06 01:12:51;;;;;;;3.50;1.83;;;3.70;99.90;;;;;;2622059;46;20277;31
2022/01/06 01:15:46;;;;;;;5.05;1.58;;;3.60;99.90;;;;;;2603873;54;20782;31
2022/01/06 01:18:35;;;;;;;4.40;1.53;;;3.60;99.90;;;;;;2604043;46;20029;31
2022/01/06 01:21:13;;;;;;;3.00;1.25;;;3.60;99.90;;;;;;2603696;54;20061;31
2022/01/06 01:23:54;;;;;;;4.63;1.60;;;3.60;99.90;;;;;;2603785;54;20753;31
2022/01/06 01:26:36;;;;;;;4.32;1.38;;;3.50;99.90;;;;;;2603699;54;20038;31
2022/01/06 01:29:15;;;;;;;5.72;1.77;;;3.50;99.90;;;;;;2603696;54;20061;31
2022/01/06 01:31:57;;;;;;;3.17;1.53;;;3.40;99.90;;;;;;2603965;54;20042;31
2022/01/06 01:34:33;;;;;;;3.83;1.42;;;3.40;99.90;;;;;;2621956;46;20280;31
2022/01/06 01:37:10;;;;;;;4.20;1.70;;;3.50;99.90;;;;;;2603728;54;20767;31
2022/01/06 01:39:51;;;;;;;7.07;1.80;;;3.50;99.90;;;;;;2622600;46;20030;31
2022/01/06 01:42:32;;;;;;;4.15;1.90;;;3.50;99.90;;;;;;2602918;54;20910;31
2022/01/06 01:45:12;;;;;;;5.05;2.25;;;3.50;99.90;;;;;;2603998;54;20026;31
2022/01/06 01:47:55;;;;;;;4.05;1.75;;;3.50;99.90;;;;;;2603666;54;20022;31
2022/01/06 01:50:36;;;;;;;4.88;1.83;;;3.60;99.90;;;;;;2603900;54;20046;31
2022/01/06 01:53:14;;;;;;;5.55;1.98;;;3.60;99.90;;;;;;2602754;54;20097;31
2022/01/06 01:56:06;;;;;;;7.15;2.17;;;3.60;99.90;;;;;;2603617;54;20030;31
2022/01/06 01:58:49;;;;;;;4.60;2.13;;;3.60;99.90;;;;;;2607092;46;20845;31
2022/01/06 02:01:26;;;;;;;5.30;2.10;;;3.60;99.90;;;;;;2603583;54;20029;31
2022/01/06 02:04:09;;;;;;;6.55;1.90;;;3.70;99.90;;;;;;2622432;46;20052;31
2022/01/06 02:06:47;;;;;;;5.47;1.55;;;3.70;99.90;;;;;;2603488;54;20108;31
2022/01/06 02:09:22;;;;;;;5.35;1.63;;;3.70;99.90;;;;;;2603505;54;20847;31
2022/01/06 02:11:58;;;;;;;5.28;1.77;;;3.70;99.90;;;;;;2603432;54;20865;31
2022/01/06 02:14:49;;;;;;;5.47;1.73;;;3.60;99.90;;;;;;2602786;54;20851;31
2022/01/06 02:17:28;;;;;;;5.78;1.95;;;3.60;99.90;;;;;;2621774;47;20905;31
2022/01/06 02:20:09;;;;;;;10.45;2.45;;;3.60;99.90;;;;;;2603446;54;20022;31
2022/01/06 02:22:49;;;;;;;4.60;2.20;;;3.60;99.90;;;;;;2603504;54;20038;31
2022/01/06 02:28:00;;;;;;;5.28;1.88;;;3.60;99.90;;;;;;2603814;54;20022;31
2022/01/06 02:30:36;;;;;;;;;;;3.60;99.90;;;;;;2603820;54;20867;31
2022/01/06 02:33:12;;;;;;;3.60;1.03;;;3.60;99.90;;;;;;2603339;54;19934;31
2022/01/06 02:35:52;;;;;;;8.00;1.30;;;3.60;99.90;;;;;;2603456;54;20101;31
2022/01/06 02:38:26;;;;;;;5.60;1.45;;;3.60;99.90;;;;;;2603449;54;20026;31
2022/01/06 02:41:03;;;;;;;4.68;1.27;;;3.60;99.90;;;;;;2603380;54;20022;31
2022/01/06 02:43:39;;;;;;;6.55;1.90;;;3.50;99.90;;;;;;2603295;54;20022;31
2022/01/06 02:46:17;;;;;;;4.03;1.37;;;3.50;99.90;;;;;;2603403;54;20847;31
2022/01/06 02:48:55;;;;;;;6.03;1.92;;;3.50;99.90;;;;;;2603336;54;20263;31
2022/01/06 02:51:32;;;;;;;5.82;1.95;;;3.60;99.90;;;;;;2603401;54;20880;31
2022/01/06 02:54:10;;;;;;;10.43;3.03;;;3.50;99.90;;;;;;2603599;54;20884;31
2022/01/06 02:56:49;;;;;;;9.50;2.85;;;3.50;99.90;;;;;;2603650;54;21079;31
2022/01/06 02:59:25;;;;;;;5.22;2.30;;;3.50;99.90;;;;;;2603638;54;20030;31
2022/01/06 03:02:03;;;;;;;6.72;1.58;;;3.50;99.90;;;;;;2603580;54;20036;31
2022/01/06 03:04:42;;;;;;;5.93;1.58;;;3.40;99.90;;;;;;2603576;54;20027;31
2022/01/06 03:07:21;;;;;;;4.28;1.67;;;3.50;99.90;;;;;;2603207;54;20037;31
2022/01/06 03:09:57;;;;;;;4.18;1.20;;;3.50;99.90;;;;;;2603251;54;20026;31
2022/01/06 03:12:39;;;;;;;5.10;1.52;;;3.50;99.90;;;;;;2603476;54;20848;31
2022/01/06 03:15:20;;;;;;;4.63;1.20;;;3.40;99.90;;;;;;2622112;46;20027;31
2022/01/06 03:17:55;;;;;;;9.13;1.10;;;3.40;99.90;;;;;;2621921;46;20052;31
2022/01/06 03:20:36;;;;;;;6.10;1.55;;;3.40;99.90;;;;;;2603608;54;20037;31
2022/01/06 03:23:29;;;;;;;5.27;1.20;;;3.40;99.90;;;;;;2603553;54;20902;31
2022/01/06 03:26:06;;;;;;;2.67;1.00;;;3.30;99.90;;;;;;2621793;46;20030;31
2022/01/06 03:28:44;;;;;;;3.70;0.90;;;3.40;99.90;;;;;;2603507;54;20041;31
2022/01/06 03:31:24;;;;;;;4.63;0.90;;;3.40;99.90;;;;;;2603412;54;20027;31
2022/01/06 03:34:02;;;;;;;6.47;0.70;;;3.40;99.90;;;;;;2603513;54;20026;31
2022/01/06 03:36:36;;;;;;;8.17;1.07;;;3.40;99.90;;;;;;2603441;54;20046;31
2022/01/06 03:39:38;;;;;;;6.63;1.00;;;3.40;99.90;;;;;;2603391;54;20243;31
2022/01/06 03:42:15;;;;;;;9.27;0.88;;;3.30;99.90;;;;;;2603184;54;20760;31
2022/01/06 03:44:49;;;;;;;6.43;1.10;;;3.30;99.90;;;;;;2702207;39;21006;31
2022/01/06 03:47:37;;;;;;;5.55;0.73;;;3.30;99.90;;;;;;2603366;54;20045;31
2022/01/06 03:50:25;;;;;;;3.20;0.88;;;3.30;99.90;;;;;;2603245;54;20049;31
2022/01/06 03:55:39;;;;;;;6.65;1.70;;;3.30;99.90;;;;;;2603188;54;20325;31
2022/01/06 03:58:16;;;;;;;4.43;1.77;;;3.30;99.90;;;;;;2603272;54;20057;31
2022/01/06 04:00:53;;;;;;;4.57;1.58;;;3.30;99.90;;;;;;2603168;54;20027;31
2022/01/06 04:03:28;;;;;;;6.00;1.70;;;3.30;99.90;;;;;;2603174;54;20847;31
2022/01/06 04:06:06;;;;;;;5.40;1.85;;;3.30;99.90;;;;;;2602678;54;20048;31
2022/01/06 04:08:44;;;;;;;6.13;2.22;;;3.30;99.90;;;;;;2603279;54;20023;31
2022/01/06 04:11:24;;;;;;;5.47;2.42;;;3.30;99.90;;;;;;2603353;54;20026;31
2022/01/06 04:13:58;;;;;;;6.37;2.57;;;3.30;99.90;;;;;;2603184;54;20022;31
2022/01/06 04:16:39;;;;;;;4.05;1.70;;;3.30;99.90;;;;;;2603167;54;20027;31
2022/01/06 04:19:15;;;;;;;3.47;1.60;;;3.30;99.90;;;;;;2621870;46;20037;31
2022/01/06 04:21:58;;;;;;;8.95;1.85;;;3.30;99.90;;;;;;2603113;54;20026;31
2022/01/06 04:24:44;;;;;;;4.50;2.35;;;3.30;99.90;;;;;;2603197;54;20096;31
2022/01/06 04:27:29;;;;;;;4.57;2.20;;;3.30;99.90;;;;;;2603317;54;20878;31
2022/01/06 04:30:09;;;;;;;9.00;2.25;;;3.30;99.90;;;;;;2621526;46;20256;31
2022/01/06 04:32:44;;;;;;;5.20;1.53;;;3.30;99.90;;;;;;2603061;54;20053;31
2022/01/06 04:35:19;;;;;;;3.72;1.85;;;3.20;99.90;;;;;;2603245;54;20336;31
2022/01/06 04:38:01;;;;;;;6.47;2.20;;;3.20;99.90;;;;;;2602879;54;20026;31
2022/01/06 04:40:39;;;;;;;3.45;1.80;;;3.30;99.90;;;;;;2603097;54;20820;31
2022/01/06 04:43:23;;;;;;;5.35;2.35;;;3.30;99.90;;;;;;2621668;46;20026;31
2022/01/06 04:45:58;;;;;;;8.65;2.45;;;3.30;99.90;;;;;;2603003;54;20816;31
2022/01/06 04:48:37;;;;;;;6.68;2.97;;;3.30;99.90;;;;;;2602956;54;20907;31
2022/01/06 04:54:05;;;;;;;5.13;2.55;;;3.30;99.90;;;;;;2621596;47;20022;31
2022/01/06 04:56:42;;;;;;;6.07;2.50;;;3.30;99.90;;;;;;2602955;54;20133;31
2022/01/06 04:59:27;;;;;;;7.68;2.88;;;3.30;99.90;;;;;;2603153;54;20034;31
2022/01/06 05:02:03;;;;;;;3.93;2.40;;;3.30;99.90;;;;;;2621746;47;20892;31
2022/01/06 05:04:39;;;;;;;5.20;2.80;;;3.20;99.90;;;;;;2603005;54;21177;31
2022/01/06 05:07:17;;;;;;;9.83;2.90;;;3.20;99.90;;;;;;2603144;54;20897;31
2022/01/06 05:09:57;;;;;;;4.57;2.38;;;3.20;99.90;;;;;;2621347;47;20994;31
2022/01/06 05:12:43;;;;;;;6.13;2.33;;;3.20;99.90;;;;;;2603189;54;20030;31
2022/01/06 05:15:28;;;;;;;8.23;1.92;;;3.20;99.90;;;;;;2611296;47;20037;31
2022/01/06 05:18:07;;;;;;;4.45;1.67;;;3.20;99.90;;;;;;2603095;54;20101;31
2022/01/06 05:20:43;;;;;;;5.47;2.35;;;3.20;99.90;;;;;;2602798;54;20026;31
2022/01/06 05:23:19;;;;;;;5.47;1.80;;;3.20;99.90;;;;;;2602620;54;20037;31
2022/01/06 05:25:56;;;;;;;8.98;1.98;;;3.20;99.90;;;;;;2621137;47;20023;31
2022/01/06 05:28:36;;;;;;;3.60;1.70;;;3.10;99.90;;;;;;2603024;54;20030;31
2022/01/06 05:31:15;;;;;;;4.05;1.70;;;3.10;99.90;;;;;;2621396;47;20038;31
2022/01/06 05:33:52;;;;;;;5.07;1.92;;;3.10;99.90;;;;;;2603076;54;20141;31
2022/01/06 05:36:27;;;;;;;4.50;2.30;;;3.10;99.90;;;;;;2603027;54;20030;31
2022/01/06 05:39:02;;;;;;;7.38;1.98;;;3.10;99.90;;;;;;2621008;47;20026;31
2022/01/06 05:41:52;;;;;;;4.13;2.10;;;3.10;99.90;;;;;;2602980;54;20022;31
2022/01/06 05:44:32;;;;;;;5.35;2.22;;;3.00;99.90;;;;;;2602874;54;20025;31
2022/01/06 05:47:10;;;;;;;4.50;1.80;;;3.00;99.90;;;;;;2602764;54;20101;31
2022/01/06 05:49:48;;;;;;;8.27;2.00;;;3.00;99.90;;;;;;2603125;54;20077;31
2022/01/06 05:52:38;;;;;;;5.85;2.20;;;2.90;99.90;;;;;;2603575;54;20046;31
2022/01/06 05:55:18;;;;;;;5.43;2.10;;;2.90;99.90;;;;;;2603588;54;20836;31
2022/01/06 05:57:55;;;;;;;5.07;2.17;;;2.90;99.90;;;;;;2622048;46;20030;31
2022/01/06 06:00:31;;;;;;;6.90;2.90;;;2.90;99.90;;;;;;2622026;46;20048;31
2022/01/06 06:03:14;;;;;;;7.45;2.38;;;2.90;99.90;;;;;;2603585;54;20026;31
2022/01/06 06:05:50;;;;;;;6.30;1.90;;;2.90;99.90;;;;;;2603589;54;20147;31
2022/01/06 06:08:25;;;;;;;7.45;2.35;;;2.90;99.90;;;;;;2602826;54;20036;31
2022/01/06 06:11:03;;;;;;;7.05;2.28;;;2.80;99.90;;;;;;2603807;54;20038;31
2022/01/06 06:13:45;;;;;;;8.45;2.90;;;2.90;99.90;;;;;;2603488;54;20086;31
2022/01/06 06:16:22;;;;;;;4.72;1.48;;;2.90;99.90;;;;;;2621859;46;20030;31
2022/01/06 06:19:19;;;;;;;4.75;1.20;;;2.80;99.90;;;;;;2603838;54;20042;31
2022/01/06 06:21:56;;;;;;;6.13;1.60;;;2.70;99.90;;;;;;2622011;46;20100;31
2022/01/06 06:24:33;;;;;;;3.67;1.73;;;2.70;99.90;;;;;;2622016;46;20056;31
2022/01/06 06:27:26;;;;;;;7.10;1.75;;;2.60;99.90;;;;;;2603716;54;20821;31
2022/01/06 06:30:17;;;;;;;6.28;1.75;;;2.50;99.90;;;;;;2603809;54;20056;31
2022/01/06 06:33:00;;;;;;;3.60;1.73;;;2.50;99.90;;;;;;2603669;54;20893;31
2022/01/06 06:35:53;;;;;;;4.15;1.33;;;2.40;99.90;;;;;;2603674;54;21183;31
2022/01/06 06:38:35;;;;;;;3.85;1.00;;;2.30;99.90;;;;;;2603528;54;20916;31
2022/01/06 06:41:10;;;;;;;2.78;1.00;;;2.30;99.90;;;;;;2603559;54;20026;31
2022/01/06 06:43:46;;;;;;;3.08;1.33;;;2.30;99.90;;;;;;2603382;54;20034;31
2022/01/06 06:46:21;;;;;;;5.43;1.57;;;2.20;99.90;;;;;;2621940;46;20033;31
2022/01/06 06:48:57;;;;;;;4.47;1.67;;;2.20;99.90;;;;;;2603528;54;20034;31
2022/01/06 06:51:35;;;;;;;4.65;1.45;;;2.20;99.90;;;;;;2603703;54;20030;31
2022/01/06 06:54:16;;;;;;;3.22;1.63;;;2.20;99.90;;;;;;2602901;54;20867;31
2022/01/06 06:56:53;;;;;;;2.75;1.00;;;2.10;99.90;;;;;;2603100;54;20111;31
2022/01/06 06:59:28;;;;;;;1.73;1.00;;;2.10;99.90;;;;;;2603134;54;20898;31
2022/01/06 07:02:06;;;;;;;3.27;0.93;;;2.00;99.90;;;;;;2603545;54;20246;31
2022/01/06 07:04:47;;;;;;;2.28;0.98;;;2.00;99.90;;;;;;2603319;54;20027;31
2022/01/06 07:07:28;;;;;;;3.22;1.60;;;2.00;99.90;;;;;;2603400;54;20026;31
2022/01/06 07:10:26;;;;;;;5.10;1.00;;;1.90;99.90;;;;;;2603401;54;20116;31
2022/01/06 07:13:02;;;;;;;4.97;1.33;;;1.90;99.90;;;;;;2602635;54;20919;31
2022/01/06 07:15:42;;;;;;;4.07;1.05;;;1.90;99.90;;;;;;2603503;54;20022;31
2022/01/06 07:18:20;;;;;;;2.97;1.63;;;1.90;99.90;;;;;;2603541;54;20034;31
2022/01/06 07:20:57;;;;;;;5.63;1.58;;;1.90;99.90;;;;;;2603343;54;20125;31
2022/01/06 07:23:39;;;;;;;5.95;1.95;;;1.90;99.90;;;;;;2603440;54;20026;31
2022/01/06 07:26:14;;;;;;;5.47;2.08;;;1.90;99.90;;;;;;2622127;46;20053;31
2022/01/06 07:28:50;;;;;;;7.10;2.05;;;1.90;99.90;;;;;;2622220;46;20026;31
2022/01/06 07:31:26;;;;;;;3.72;1.92;;;1.90;99.90;;;;;;2621962;46;20085;31
2022/01/06 07:34:02;;;;;;;7.15;2.40;;;1.90;99.90;;;;;;2603067;54;20851;31
2022/01/06 07:39:36;;;;;;;2.10;1.30;;;1.90;99.90;;;;;;2603364;54;20030;31
2022/01/06 07:42:12;;;;;;;5.90;1.42;;;1.80;99.90;;;;;;2602634;54;20927;31
2022/01/06 07:44:49;;;;;;;3.43;1.63;;;1.80;99.90;;;;;;2603210;54;20901;31
2022/01/06 07:47:31;;;;;;;3.00;1.08;;;1.80;99.90;;;;;;2603071;54;21302;31
2022/01/06 07:53:03;;;;;;;3.10;1.40;;;1.60;99.90;;;;;;2621357;46;20042;31
2022/01/06 07:55:46;;;;;;;3.78;1.20;;;1.60;99.90;;;;;;2603269;54;20057;31
2022/01/06 07:58:25;;;;;;;2.30;1.20;;;1.60;99.90;;;;;;2609359;46;20082;31
2022/01/06 08:01:02;;;;;;;4.60;1.48;;;1.60;99.90;;;;;;2602600;54;20029;31
2022/01/06 08:03:46;;;;;;;3.15;1.10;;;1.50;99.90;;;;;;2603396;54;20761;31
2022/01/06 08:06:24;;;;;;;3.93;1.60;;;1.50;99.90;;;;;;2603281;54;20026;31
2022/01/06 08:08:59;;;;;;;4.07;1.42;;;1.50;99.90;;;;;;2603259;54;20943;31
2022/01/06 08:11:46;;;;;;;3.67;1.40;;;1.50;99.90;;;;;;2603154;54;20953;31
2022/01/06 08:17:15;;;;;;;4.38;2.00;;;1.50;99.90;;;;;;2603444;54;20052;31
2022/01/06 08:19:52;;;;;;;3.37;2.07;;;1.40;99.90;;;;;;2603208;54;20089;31
2022/01/06 08:22:35;;;;;;;8.63;1.92;;;1.40;99.90;;;;;;2603411;54;20050;31
2022/01/06 08:25:11;;;;;;;6.00;1.75;;;1.30;99.90;;;;;;2603114;54;20031;31
2022/01/06 08:30:38;;;;;;;5.15;1.50;;;1.40;99.90;;;;;;2621902;46;20093;31
2022/01/06 08:33:18;;;;;;;3.97;2.15;;;1.40;99.90;;;;;;2621526;46;20254;31
2022/01/06 08:38:27;;;;;;;3.15;1.33;;;1.40;99.90;;;;;;2603044;54;20022;31
2022/01/06 08:41:01;;;;;;;4.07;1.00;;;1.50;99.90;;;;;;2603062;54;20778;31
2022/01/06 08:43:44;;;;;;;2.67;0.93;;;1.40;99.90;;;;;;2603152;54;20054;31
2022/01/06 08:46:23;;;;;;;2.42;0.68;;;1.40;99.90;;;;;;2602935;54;20038;31
2022/01/06 08:49:19;;;;;;;2.63;0.90;;;1.30;99.90;;;;;;2603482;54;20033;31
2022/01/06 08:51:58;;;;;;;7.50;0.90;;;1.30;99.90;;;;;;2602863;54;20101;31
2022/01/06 08:54:40;;;;;;;3.38;0.90;;;1.30;99.90;;;;;;2602874;54;20042;31
2022/01/06 08:57:21;;;;;;;3.90;1.08;;;1.20;99.90;;;;;;2602817;54;20036;31
2022/01/06 09:00:22;;;;;;;3.92;0.55;;;1.20;99.90;;;;;;2701855;39;21031;31
2022/01/06 09:02:57;;;;;;;3.20;0.50;;;1.20;99.90;;;;;;2602911;54;20963;31
2022/01/06 09:05:45;;;;;;;1.90;0.70;;;1.20;99.90;;;;;;2621486;47;20027;31
2022/01/06 09:08:23;;;;;;;4.85;0.93;;;1.40;99.90;;;;;;2621685;47;20057;31
2022/01/06 09:10:58;;;;;;;2.72;0.70;;;1.60;99.90;;;;;;2701362;39;21120;31
2022/01/06 09:13:39;;;;;;;2.03;0.50;;;1.80;99.90;;;;;;2621128;47;20880;31
2022/01/06 09:16:27;;;;;;;2.30;0.60;;;1.90;99.90;;;;;;2603062;54;21080;31
2022/01/06 09:19:07;;;;;;;1.27;0.43;;;1.80;99.90;;;;;;2602908;54;20030;31
2022/01/06 09:21:45;;;;;;;1.47;0.50;;;1.90;99.90;;;;;;2603071;54;20931;31
2022/01/06 09:27:29;;;;;;;2.30;0.60;;;1.90;99.90;;;;;;2603599;54;20030;31
2022/01/06 09:30:15;;;;;;;0.70;0.30;;;1.90;99.90;;;;;;2603768;54;20246;31
2022/01/06 09:32:53;;;;;;;1.35;0.30;;;1.80;99.90;;;;;;2603866;54;20030;31
2022/01/06 09:35:31;;;;;;;;;;;1.70;99.90;;;;;;2622345;46;20026;31
2022/01/06 09:38:12;;;;;;;;;;;1.60;99.90;;;;;;2603946;54;19983;31
2022/01/06 09:41:07;;;;;;;3.80;1.05;;;1.60;99.90;;;;;;2607398;46;19996;31
2022/01/06 09:44:07;;;;;;;;;;;;;;;;;;;;;
2022/01/06 09:46:58;;;;;;;2.97;0.53;;;1.40;99.90;;;;;;2603684;54;20905;31
2022/01/06 09:49:47;;;;;;;2.47;1.00;;;1.40;99.90;;;;;;2602838;54;20027;31
2022/01/06 09:52:50;;;;;;;3.03;0.60;;;1.30;99.90;;;;;;2603753;54;20859;31
2022/01/06 09:55:46;;;;;;;4.00;0.82;;;1.20;99.90;;;;;;2621589;46;20758;31
2022/01/06 10:02:05;;;;;;;1.73;0.77;;;1.00;99.90;;;;;;2603793;54;20729;31
2022/01/06 10:05:11;;;;;;;2.03;0.57;;;0.90;99.90;;;;;;2603472;54;20864;31
2022/01/06 10:10:55;;;;;;;2.95;0.70;;;0.90;99.90;;;;;;2621257;46;20005;31
2022/01/06 10:30:06;;;;;;;;;;;;;;;;;;;;;
2022/01/06 10:43:35;;;;;;;2.10;0.43;;;1.10;99.90;;;;;;2603386;54;20902;31
2022/01/06 10:46:32;;;;;;;2.00;0.40;;;1.20;99.90;;;;;;2603235;54;20253;31
2022/01/06 10:54:39;;;;;;;5.32;1.23;;;1.70;99.90;;;;;;2621731;46;20022;31
2022/01/06 10:57:21;;;;;;;4.75;1.15;;;1.70;99.90;;;;;;2603633;54;20011;31
2022/01/06 11:00:28;;;;;;;4.20;0.60;;;1.80;99.90;;;;;;2603330;54;20042;31
2022/01/06 11:06:10;;;;;;;4.35;0.73;;;1.70;99.90;;;;;;2603531;54;20894;31
2022/01/06 11:09:05;;;;;;;3.70;1.40;;;1.70;99.90;;;;;;2603231;54;20026;31
2022/01/06 11:12:26;;;;;;;4.55;1.20;;;1.70;99.90;;;;;;2622088;46;20033;31
2022/01/06 11:14:44;;;;;;;4.90;0.80;;;1.80;99.90;;;;;;2603347;54;20030;31
2022/01/06 11:17:24;;;;;;;5.15;1.10;;;1.80;99.90;;;;;;2603403;54;20027;31
2022/01/06 11:20:02;;;;;;;3.57;0.70;;;2.10;99.90;;;;;;2603113;54;20026;31
2022/01/06 11:22:40;;;;;;;4.15;0.70;;;2.10;99.90;;;;;;2621191;46;20044;31
2022/01/06 11:25:47;;;;;;;8.60;1.63;;;2.00;99.90;;;;;;2603519;54;20892;31
2022/01/06 11:28:44;;;;;;;5.70;1.42;;;2.00;99.90;;;;;;2603219;54;20025;31
2022/01/06 11:31:23;;;;;;;11.50;2.03;;;2.00;99.90;;;;;;2622134;46;20026;31
2022/01/06 11:34:18;;;;;;;6.35;1.35;;;2.00;99.90;;;;;;2609879;46;20777;31
2022/01/06 11:37:22;;;;;;;9.48;2.30;;;2.10;99.90;;;;;;2614591;46;20034;31
2022/01/06 11:40:04;;;;;;;10.30;1.83;;;2.10;99.90;;;;;;2602413;54;20022;31
2022/01/06 11:42:54;;;;;;;3.53;1.00;;;2.10;99.90;;;;;;2603603;54;20018;31
2022/01/06 11:45:31;;;;;;;10.00;1.83;;;2.10;99.90;;;;;;2603187;54;20093;31
2022/01/06 11:48:13;;;;;;;12.75;2.33;;;2.10;99.90;;;;;;2603217;54;20042;31
2022/01/06 11:50:55;;;;;;;7.15;1.77;;;2.10;99.90;;;;;;2603400;54;20841;31
2022/01/06 11:53:56;;;;;;;8.93;2.07;;;2.00;99.90;;;;;;2603367;54;20081;31
2022/01/06 11:56:31;;;;;;;12.43;1.25;;;1.90;99.90;;;;;;2621896;46;20027;31
2022/01/06 11:59:10;;;;;;;10.95;2.35;;;1.90;99.90;;;;;;2602578;54;20049;31
2022/01/06 12:11:37;;;;;;;;;;;;;;;;;;;;;
2022/01/06 12:14:36;;;;;;;3.97;0.63;;;1.70;99.90;;;;;;2603140;54;20023;31
2022/01/06 12:17:12;;;;;;;4.25;1.08;;;1.60;99.90;;;;;;2621468;46;20046;31
2022/01/06 12:19:48;;;;;;;9.70;2.20;;;1.60;99.90;;;;;;2603453;54;20027;31
2022/01/06 12:22:26;;;;;;;3.90;1.00;;;1.70;99.90;;;;;;2602662;54;20050;31
2022/01/06 12:25:31;;;;;;;3.83;1.38;;;1.70;99.90;;;;;;2602499;54;21151;31
2022/01/06 12:31:02;;;;;;;8.20;1.13;;;1.70;99.90;;;;;;2603382;54;20061;31
2022/01/06 12:33:49;;;;;;;4.68;1.00;;;1.70;99.90;;;;;;2603349;54;20030;31
2022/01/06 12:36:24;;;;;;;4.43;0.95;;;1.60;99.90;;;;;;2621352;46;20856;31
2022/01/06 12:39:09;;;;;;;4.03;1.08;;;1.60;99.90;;;;;;2603174;54;20778;31
2022/01/06 12:41:51;;;;;;;2.58;1.17;;;1.40;99.90;;;;;;2621331;46;20823;31
2022/01/06 12:44:32;;;;;;;6.43;1.80;;;1.30;99.90;;;;;;2621454;46;20031;31
2022/01/06 12:47:20;;;;;;;4.85;1.25;;;1.30;99.90;;;;;;2602287;54;20034;31
2022/01/06 12:50:02;;;;;;;5.63;1.30;;;1.40;99.90;;;;;;2603282;54;20042;31
2022/01/06 12:52:57;;;;;;;2.25;0.80;;;1.30;99.90;;;;;;2621623;46;20053;31
2022/01/06 12:55:34;;;;;;;2.53;0.90;;;1.40;99.90;;;;;;2603179;54;20033;31
2022/01/06 12:58:27;;;;;;;4.78;1.10;;;1.40;99.90;;;;;;2620962;47;19938;31
2022/01/06 13:01:10;;;;;;;6.40;1.15;;;1.30;99.90;;;;;;2603794;54;20733;31
2022/01/06 13:03:51;;;;;;;5.68;0.90;;;1.40;99.90;;;;;;2603561;46;20044;31
2022/01/06 13:06:37;;;;;;;5.07;0.95;;;1.30;99.90;;;;;;2622334;46;20035;31
2022/01/06 13:09:21;;;;;;;5.18;1.58;;;1.30;99.90;;;;;;2622528;46;20050;31
2022/01/06 13:12:01;;;;;;;5.50;1.60;;;1.30;99.90;;;;;;2603871;54;20038;31
2022/01/06 13:14:37;;;;;;;7.28;2.20;;;1.30;99.90;;;;;;2603952;54;20045;31
2022/01/06 13:17:18;;;;;;;5.60;1.20;;;1.30;99.90;;;;;;2604022;54;20085;31
2022/01/06 13:20:01;;;;;;;6.72;1.10;;;1.20;99.90;;;;;;2604063;54;20027;31
2022/01/06 13:22:49;;;;;;;5.90;0.90;;;1.10;99.90;;;;;;2603827;54;20918;31
2022/01/06 13:25:25;;;;;;;7.43;1.60;;;0.90;99.90;;;;;;2603862;54;20907;31
2022/01/06 13:28:07;;;;;;;7.80;1.67;;;0.80;99.90;;;;;;2603721;54;20840;31
2022/01/06 13:30:46;;;;;;;4.13;1.92;;;0.80;99.90;;;;;;2603760;54;20037;31
2022/01/06 13:33:36;;;;;;;9.02;1.85;;;0.70;99.90;;;;;;2603739;54;20802;31
2022/01/06 13:36:13;;;;;;;2.90;0.70;;;0.80;99.90;;;;;;2603776;54;20762;31
2022/01/06 13:41:27;;;;;;;4.93;0.73;;;0.90;99.90;;;;;;2603663;54;20026;31
2022/01/06 13:47:08;;;;;;;4.05;0.60;;;0.90;99.90;;;;;;2603615;54;20891;31
2022/01/06 13:52:42;;;;;;;6.13;0.83;;;0.90;99.90;;;;;;2603781;54;20912;31
2022/01/06 13:55:19;;;;;;;;;;;1.00;99.90;;;;;;2604102;54;20239;31
2022/01/06 13:57:58;;;;;;;6.20;1.00;;;1.00;99.90;;;;;;2603516;54;19946;31
2022/01/06 14:00:32;;;;;;;5.25;1.30;;;0.90;99.90;;;;;;2603837;54;20083;31
2022/01/06 14:03:07;;;;;;;3.97;1.27;;;0.90;99.90;;;;;;2603619;54;20759;31
2022/01/06 14:05:54;;;;;;;6.65;1.25;;;0.80;99.90;;;;;;2610143;46;20879;31
2022/01/06 14:08:29;;;;;;;8.55;1.02;;;0.80;99.90;;;;;;2603476;54;20030;31
2022/01/06 14:11:12;;;;;;;4.22;1.08;;;0.80;99.90;;;;;;2622113;46;20045;31
2022/01/06 14:13:49;;;;;;;4.90;1.10;;;0.80;99.90;;;;;;2622168;46;20875;31
2022/01/06 14:16:24;;;;;;;4.15;1.88;;;0.80;99.90;;;;;;2603748;54;20027;31
2022/01/06 14:19:02;;;;;;;5.40;1.43;;;0.80;99.90;;;;;;2622259;46;20875;31
2022/01/06 14:21:41;;;;;;;6.40;1.67;;;0.80;99.90;;;;;;2622209;46;21146;31
2022/01/06 14:24:19;;;;;;;3.90;1.40;;;0.80;99.90;;;;;;2613058;46;20919;31
2022/01/06 14:26:56;;;;;;;5.60;1.20;;;0.90;99.90;;;;;;2603566;54;20027;31
2022/01/06 14:29:39;;;;;;;6.40;0.98;;;1.20;99.90;;;;;;2602876;54;20061;31
2022/01/06 14:32:22;;;;;;;4.80;1.50;;;1.20;99.90;;;;;;2603424;54;20049;31
2022/01/06 14:35:03;;;;;;;4.25;1.10;;;1.20;99.90;;;;;;2603716;54;19958;31
2022/01/06 14:37:42;;;;;;;8.20;1.10;;;1.10;99.90;;;;;;2621951;46;20121;31
2022/01/06 14:40:23;;;;;;;7.00;1.55;;;1.00;99.90;;;;;;2603620;54;20029;31
2022/01/06 14:43:20;;;;;;;7.43;1.52;;;1.00;99.90;;;;;;2603305;54;20026;31
2022/01/06 14:46:01;;;;;;;5.00;1.55;;;0.90;99.90;;;;;;2603450;54;20148;31
2022/01/06 14:48:43;;;;;;;6.00;1.40;;;0.90;99.90;;;;;;2603461;54;20034;31
2022/01/06 14:51:23;;;;;;;;;;;0.90;99.90;;;;;;2603969;54;20027;31
2022/01/06 14:53:59;;;;;;;4.80;1.77;;;0.90;99.90;;;;;;2603475;54;19997;31
2022/01/06 14:56:41;;;;;;;;;;;0.90;99.90;;;;;;2603719;54;19934;31
2022/01/06 14:59:19;;;;;;;5.63;0.88;;;0.90;99.90;;;;;;2621912;46;20866;31
2022/01/06 15:01:57;;;;;;;4.22;1.20;;;0.80;99.90;;;;;;2603665;54;20027;31
2022/01/06 15:04:54;;;;;;;5.05;0.90;;;0.80;99.90;;;;;;2621979;46;20030;31
2022/01/06 15:07:49;;;;;;;6.97;1.80;;;0.80;99.90;;;;;;2603415;54;20093;31
2022/01/06 15:10:26;;;;;;;6.10;2.00;;;0.80;99.90;;;;;;2603255;54;20064;31
2022/01/06 15:13:07;;;;;;;5.78;1.80;;;0.80;99.90;;;;;;2603443;54;20030;31
2022/01/06 15:15:46;;;;;;;4.97;1.80;;;0.80;99.90;;;;;;2603607;54;20027;31
2022/01/06 15:18:20;;;;;;;7.63;2.37;;;0.80;99.90;;;;;;2603686;54;20936;31
2022/01/06 15:21:01;;;;;;;6.35;1.98;;;0.80;99.90;;;;;;2603345;54;20230;31
2022/01/06 15:23:38;;;;;;;5.40;2.30;;;0.80;99.90;;;;;;2603297;54;20031;31
2022/01/06 15:26:29;;;;;;;4.13;1.67;;;0.70;99.90;;;;;;2603585;54;20077;31
2022/01/06 15:29:16;;;;;;;5.60;2.10;;;0.70;99.90;;;;;;2621361;46;20109;31
2022/01/06 15:31:52;;;;;;;3.17;1.60;;;0.70;99.90;;;;;;2603436;54;20033;31
2022/01/06 15:34:32;;;;;;;4.05;1.55;;;0.60;99.90;;;;;;2603388;54;20049;31
2022/01/06 15:37:10;;;;;;;8.95;1.90;;;0.60;99.90;;;;;;2603300;54;20129;31
2022/01/06 15:39:46;;;;;;;6.65;2.70;;;0.50;99.90;;;;;;2603360;54;20033;31
2022/01/06 15:42:23;;;;;;;8.23;1.35;;;0.50;99.90;;;;;;2603460;54;20108;31
2022/01/06 15:45:22;;;;;;;2.83;1.15;;;0.50;99.90;;;;;;2603473;54;20038;31
2022/01/06 15:48:01;;;;;;;4.55;1.00;;;0.40;99.90;;;;;;2621639;46;20038;31
2022/01/06 15:50:37;;;;;;;4.40;1.63;;;0.40;99.90;;;;;;2617624;46;20038;31
2022/01/06 15:53:15;;;;;;;5.53;2.30;;;0.40;99.90;;;;;;2602652;54;20026;31
2022/01/06 15:55:49;;;;;;;7.95;2.10;;;0.30;99.90;;;;;;2616257;46;20796;31
2022/01/06 15:58:25;;;;;;;6.90;3.22;;;0.40;99.90;;;;;;2603441;54;20030;31
2022/01/06 16:06:38;;;;;;;8.38;2.60;;;0.30;99.90;;;;;;2603222;54;20081;31
2022/01/06 16:09:12;;;;;;;12.70;3.10;;;0.30;99.90;;;;;;2603353;54;20030;31
2022/01/06 16:11:48;;;;;;;7.55;3.00;;;0.20;99.90;;;;;;2608212;46;20042;31
2022/01/06 16:14:26;;;;;;;15.35;4.05;;;0.20;99.90;;;;;;2603255;54;20845;31